Time;durP1;ratioP1;P1;durP2;ratioP2;P2;SDS_P1;SDS_P2;PMS_P1;PMS_P2;Temp;Humidity;BMP_temperature;BMP_pressure;BME280_temperature;BME280_humidity;BME280_pressure;Samples;Min_cycle;Max_cycle;Signal;HPM_P1;HPM_P2
2022/03/13 00:00:10;;;;;;;18.52;13.20;;;;;;;;;;4825767;29;20086;-90
2022/03/13 00:02:38;;;;;;;21.58;14.02;;;;;;;;;;4843010;29;20049;-87
2022/03/13 00:05:06;;;;;;;19.08;13.57;;;;;;;;;;4827840;29;20053;-86
2022/03/13 00:07:34;;;;;;;18.25;13.25;;;;;;;;;;4827064;29;20068;-86
2022/03/13 00:10:00;;;;;;;18.75;12.77;;;;;;;;;;4824406;29;20109;-87
2022/03/13 00:12:29;;;;;;;18.23;13.38;;;;;;;;;;4842485;29;20045;-88
2022/03/13 00:14:57;;;;;;;17.88;13.75;;;;;;;;;;4840992;29;20068;-86
2022/03/13 00:17:30;;;;;;;21.77;14.90;;;;;;;;;;4826114;29;20050;-86
2022/03/13 00:20:00;;;;;;;19.08;13.80;;;;;;;;;;4852786;29;20061;-86
2022/03/13 00:22:33;;;;;;;18.30;13.32;;;;;;;;;;4846104;29;20061;-86
2022/03/13 00:25:00;;;;;;;18.08;13.43;;;;;;;;;;4845192;29;20381;-89
2022/03/13 00:27:30;;;;;;;20.02;14.00;;;;;;;;;;4828423;29;20446;-84
2022/03/13 00:29:56;;;;;;;20.23;13.95;;;;;;;;;;4859306;29;20093;-83
2022/03/13 00:32:22;;;;;;;22.35;14.25;;;;;;;;;;4860270;29;20069;-88
2022/03/13 00:34:48;;;;;;;22.20;14.80;;;;;;;;;;4845384;29;20053;-83
2022/03/13 00:37:14;;;;;;;19.67;13.75;;;;;;;;;;4826083;29;20069;-81
2022/03/13 00:39:41;;;;;;;19.15;13.65;;;;;;;;;;4846236;29;20434;-82
2022/03/13 00:42:08;;;;;;;19.25;14.00;;;;;;;;;;4859232;29;20080;-82
2022/03/13 00:44:34;;;;;;;21.15;14.00;;;;;;;;;;4843593;29;20084;-81
2022/03/13 00:47:00;;;;;;;21.52;14.15;;;;;;;;;;4860389;29;20104;-82
2022/03/13 00:49:26;;;;;;;18.63;13.85;;;;;;;;;;4844970;29;20485;-81
2022/03/13 00:51:52;;;;;;;21.52;14.45;;;;;;;;;;4830820;29;20091;-81
2022/03/13 00:54:18;;;;;;;18.50;13.38;;;;;;;;;;4829694;29;20045;-82
2022/03/13 00:56:44;;;;;;;22.10;14.93;;;;;;;;;;4844129;29;20049;-82
2022/03/13 00:59:10;;;;;;;19.52;14.23;;;;;;;;;;4857814;29;20461;-82
2022/03/13 01:01:36;;;;;;;19.48;13.90;;;;;;;;;;4840663;29;20136;-81
2022/03/13 01:04:02;;;;;;;20.95;15.27;;;;;;;;;;4842285;29;20061;-81
2022/03/13 01:06:28;;;;;;;18.58;13.73;;;;;;;;;;4842793;29;20820;-81
2022/03/13 01:08:54;;;;;;;19.80;13.82;;;;;;;;;;4843894;29;20049;-82
2022/03/13 01:11:21;;;;;;;21.88;14.15;;;;;;;;;;4858709;29;20950;-82
2022/03/13 01:13:49;;;;;;;21.05;13.57;;;;;;;;;;4859286;29;20045;-81
2022/03/13 01:16:15;;;;;;;23.15;14.77;;;;;;;;;;4843843;29;20446;-82
2022/03/13 01:18:43;;;;;;;20.88;13.88;;;;;;;;;;4859990;29;20049;-81
2022/03/13 01:21:10;;;;;;;21.20;14.63;;;;;;;;;;4843125;29;20064;-82
2022/03/13 01:23:37;;;;;;;17.75;13.82;;;;;;;;;;4844046;29;20442;-82
2022/03/13 01:26:21;;;;;;;20.40;14.18;;;;;;;;;;4859179;29;20044;-82
2022/03/13 01:28:49;;;;;;;22.63;14.25;;;;;;;;;;4854324;29;20417;-81
2022/03/13 01:31:15;;;;;;;19.83;14.40;;;;;;;;;;4838408;29;20064;-81
2022/03/13 01:33:41;;;;;;;21.75;14.88;;;;;;;;;;4842562;29;20566;-81
2022/03/13 01:36:07;;;;;;;17.35;13.77;;;;;;;;;;4840464;29;20541;-82
2022/03/13 01:38:33;;;;;;;18.23;13.77;;;;;;;;;;4838753;29;20497;-82
2022/03/13 01:40:59;;;;;;;23.52;14.18;;;;;;;;;;4853630;29;20063;-82
2022/03/13 01:43:26;;;;;;;19.55;14.50;;;;;;;;;;4841477;29;20056;-82
2022/03/13 01:45:52;;;;;;;21.80;14.52;;;;;;;;;;4856649;29;20136;-82
2022/03/13 01:48:18;;;;;;;19.50;14.48;;;;;;;;;;4855184;29;20053;-81
2022/03/13 01:50:45;;;;;;;23.60;14.73;;;;;;;;;;4837032;29;20045;-82
2022/03/13 01:53:12;;;;;;;20.95;14.60;;;;;;;;;;4842098;29;20051;-82
2022/03/13 01:55:38;;;;;;;19.65;14.25;;;;;;;;;;4826424;29;20041;-82
2022/03/13 01:58:04;;;;;;;25.08;14.90;;;;;;;;;;4853264;29;20434;-82
2022/03/13 02:00:30;;;;;;;20.25;14.88;;;;;;;;;;4851499;29;20377;-82
2022/03/13 02:02:56;;;;;;;20.33;14.77;;;;;;;;;;4840355;29;20060;-81
2022/03/13 02:05:30;;;;;;;19.98;14.25;;;;;;;;;;4841120;29;20049;-82
2022/03/13 02:07:56;;;;;;;;;;;;;;;;;;4854670;29;20055;-81
2022/03/13 02:10:22;;;;;;;18.05;14.07;;;;;;;;;;4855415;29;19932;-82
2022/03/13 02:12:48;;;;;;;19.95;14.63;;;;;;;;;;4852879;29;20044;-81
2022/03/13 02:15:14;;;;;;;19.63;14.23;;;;;;;;;;4855447;29;20045;-82
2022/03/13 02:17:41;;;;;;;21.23;14.00;;;;;;;;;;4855812;29;20449;-81
2022/03/13 02:20:12;;;;;;;21.98;13.60;;;;;;;;;;4838952;29;20116;-81
2022/03/13 02:22:39;;;;;;;18.83;13.88;;;;;;;;;;4834739;29;20057;-81
2022/03/13 02:25:05;;;;;;;18.65;13.57;;;;;;;;;;4855377;29;20057;-81
2022/03/13 02:27:33;;;;;;;19.38;13.93;;;;;;;;;;4853934;29;20045;-81
2022/03/13 02:29:59;;;;;;;17.48;14.27;;;;;;;;;;4838201;29;20049;-81
2022/03/13 02:32:25;;;;;;;20.65;14.38;;;;;;;;;;4838286;29;20488;-81
2022/03/13 02:34:51;;;;;;;19.60;14.57;;;;;;;;;;4851536;29;20041;-81
2022/03/13 02:37:37;;;;;;;21.95;15.13;;;;;;;;;;4840095;29;20124;-81
2022/03/13 02:40:04;;;;;;;18.67;14.10;;;;;;;;;;4853691;29;20145;-81
2022/03/13 02:42:30;;;;;;;20.27;14.85;;;;;;;;;;4840332;29;20044;-82
2022/03/13 02:44:56;;;;;;;21.48;14.68;;;;;;;;;;4857685;29;20361;-81
2022/03/13 02:47:22;;;;;;;22.13;14.52;;;;;;;;;;4843046;29;20056;-81
2022/03/13 02:49:48;;;;;;;20.48;13.93;;;;;;;;;;4841947;29;20068;-82
2022/03/13 02:52:14;;;;;;;21.13;14.70;;;;;;;;;;4828680;29;20090;-82
2022/03/13 02:54:40;;;;;;;20.13;14.55;;;;;;;;;;4858646;29;20049;-82
2022/03/13 02:57:07;;;;;;;22.73;15.68;;;;;;;;;;4828173;29;20053;-82
2022/03/13 02:59:33;;;;;;;21.15;15.43;;;;;;;;;;4858639;29;20500;-82
2022/03/13 03:02:02;;;;;;;20.73;15.18;;;;;;;;;;4856615;29;20060;-82
2022/03/13 03:04:28;;;;;;;23.67;15.43;;;;;;;;;;4842037;29;20056;-82
2022/03/13 03:06:59;;;;;;;21.48;16.20;;;;;;;;;;4826650;29;20389;-82
2022/03/13 03:09:26;;;;;;;22.60;15.80;;;;;;;;;;4842125;29;20141;-82
2022/03/13 03:11:52;;;;;;;22.33;15.38;;;;;;;;;;4858302;29;20048;-82
2022/03/13 03:14:19;;;;;;;23.83;16.05;;;;;;;;;;4838592;29;20116;-82
2022/03/13 03:16:45;;;;;;;23.20;14.77;;;;;;;;;;4842083;29;20337;-81
2022/03/13 03:19:12;;;;;;;23.40;15.60;;;;;;;;;;4827122;29;20061;-82
2022/03/13 03:21:39;;;;;;;25.17;14.88;;;;;;;;;;4855386;29;20068;-82
2022/03/13 03:24:18;;;;;;;27.27;14.82;;;;;;;;;;4857834;29;20144;-82
2022/03/13 03:26:45;;;;;;;22.90;16.45;;;;;;;;;;4842956;29;20042;-82
2022/03/13 03:29:11;;;;;;;21.67;15.30;;;;;;;;;;4841692;29;20401;-82
2022/03/13 03:31:45;;;;;;;19.65;15.13;;;;;;;;;;4855986;29;20503;-81
2022/03/13 03:34:12;;;;;;;23.08;16.60;;;;;;;;;;4843374;29;20080;-82
2022/03/13 03:36:39;;;;;;;21.50;16.20;;;;;;;;;;4844714;29;20052;-82
2022/03/13 03:39:06;;;;;;;23.98;15.95;;;;;;;;;;4861502;29;20060;-82
2022/03/13 03:41:32;;;;;;;23.42;16.70;;;;;;;;;;4845069;29;20052;-82
2022/03/13 03:43:59;;;;;;;20.05;15.88;;;;;;;;;;4843692;29;20064;-81
2022/03/13 03:46:25;;;;;;;22.25;16.23;;;;;;;;;;4843758;29;20326;-82
2022/03/13 03:48:51;;;;;;;18.95;14.95;;;;;;;;;;4858520;29;20085;-81
2022/03/13 03:51:17;;;;;;;19.88;15.95;;;;;;;;;;4857530;29;20060;-82
2022/03/13 03:53:43;;;;;;;21.58;16.00;;;;;;;;;;4859959;29;20450;-82
2022/03/13 03:56:09;;;;;;;21.70;16.48;;;;;;;;;;4844778;29;20037;-82
2022/03/13 03:58:35;;;;;;;25.27;16.02;;;;;;;;;;4830102;29;20081;-82
2022/03/13 04:01:01;;;;;;;20.83;15.73;;;;;;;;;;4860292;29;20052;-82
2022/03/13 04:03:27;;;;;;;25.73;15.85;;;;;;;;;;4830354;29;20057;-82
2022/03/13 04:05:53;;;;;;;20.60;15.02;;;;;;;;;;4830481;29;20090;-82
2022/03/13 04:08:19;;;;;;;20.45;15.52;;;;;;;;;;4844339;29;20143;-82
2022/03/13 04:10:46;;;;;;;21.23;15.52;;;;;;;;;;4845417;29;20060;-81
2022/03/13 04:13:12;;;;;;;22.10;16.45;;;;;;;;;;4860187;29;20097;-82
2022/03/13 04:15:38;;;;;;;23.20;16.02;;;;;;;;;;4844615;29;20076;-82
2022/03/13 04:18:04;;;;;;;21.02;16.02;;;;;;;;;;4844118;29;20053;-82
2022/03/13 04:20:30;;;;;;;21.50;16.42;;;;;;;;;;4844627;29;20049;-82
2022/03/13 04:22:56;;;;;;;23.42;16.35;;;;;;;;;;4845831;29;20064;-82
2022/03/13 04:25:23;;;;;;;25.13;17.20;;;;;;;;;;4828576;29;20045;-82
2022/03/13 04:27:49;;;;;;;24.45;17.75;;;;;;;;;;4844869;29;20197;-82
2022/03/13 04:30:15;;;;;;;24.05;16.60;;;;;;;;;;4859973;29;20040;-82
2022/03/13 04:32:41;;;;;;;26.08;16.25;;;;;;;;;;4829829;29;20053;-82
2022/03/13 04:35:07;;;;;;;23.98;16.15;;;;;;;;;;4830281;29;20453;-82
2022/03/13 04:37:33;;;;;;;21.83;15.30;;;;;;;;;;4829430;29;20064;-82
2022/03/13 04:39:59;;;;;;;20.27;15.27;;;;;;;;;;4859753;29;20517;-82
2022/03/13 04:42:25;;;;;;;22.70;16.63;;;;;;;;;;4844022;29;20388;-82
2022/03/13 04:44:51;;;;;;;22.13;16.13;;;;;;;;;;4859181;29;20089;-82
2022/03/13 04:47:17;;;;;;;26.77;17.52;;;;;;;;;;4844062;29;20049;-81
2022/03/13 04:49:44;;;;;;;22.90;16.08;;;;;;;;;;4828742;29;20056;-81
2022/03/13 04:52:10;;;;;;;25.38;16.58;;;;;;;;;;4843709;29;20068;-82
2022/03/13 04:54:36;;;;;;;23.67;16.20;;;;;;;;;;4853797;29;20112;-82
2022/03/13 04:57:03;;;;;;;20.55;16.20;;;;;;;;;;4842862;29;20049;-82
2022/03/13 04:59:29;;;;;;;22.77;16.45;;;;;;;;;;4844407;29;20492;-82
2022/03/13 05:01:55;;;;;;;21.80;16.35;;;;;;;;;;4844853;29;20414;-82
2022/03/13 05:04:21;;;;;;;24.13;16.30;;;;;;;;;;4845452;29;20160;-82
2022/03/13 05:06:47;;;;;;;22.85;16.77;;;;;;;;;;4828711;29;20058;-82
2022/03/13 05:09:13;;;;;;;25.65;16.15;;;;;;;;;;4845408;29;20159;-82
2022/03/13 05:11:39;;;;;;;21.75;16.38;;;;;;;;;;4843709;29;20112;-82
2022/03/13 05:14:06;;;;;;;23.50;16.42;;;;;;;;;;4859290;29;20472;-82
2022/03/13 05:16:32;;;;;;;23.48;17.00;;;;;;;;;;4829810;29;20048;-82
2022/03/13 05:18:58;;;;;;;24.25;16.63;;;;;;;;;;4844794;29;20052;-81
2022/03/13 05:21:24;;;;;;;23.23;16.25;;;;;;;;;;4840846;29;20076;-79
2022/03/13 05:23:50;;;;;;;23.10;17.25;;;;;;;;;;4859833;29;20048;-78
2022/03/13 05:26:16;;;;;;;23.27;16.38;;;;;;;;;;4858810;29;20403;-79
2022/03/13 05:28:42;;;;;;;22.65;16.77;;;;;;;;;;4843289;29;20052;-79
2022/03/13 05:31:08;;;;;;;23.35;15.98;;;;;;;;;;4858086;29;20466;-79
2022/03/13 05:33:34;;;;;;;23.40;15.95;;;;;;;;;;4844509;29;20446;-80
2022/03/13 05:36:01;;;;;;;25.75;17.17;;;;;;;;;;4841701;29;20088;-81
2022/03/13 05:38:27;;;;;;;20.63;16.13;;;;;;;;;;4840775;29;20068;-81
2022/03/13 05:40:53;;;;;;;21.92;16.13;;;;;;;;;;4836968;29;20389;-81
2022/03/13 05:43:22;;;;;;;23.63;17.23;;;;;;;;;;4855858;29;20048;-81
2022/03/13 05:45:48;;;;;;;24.05;16.85;;;;;;;;;;4840482;29;20046;-81
2022/03/13 05:48:17;;;;;;;25.15;16.80;;;;;;;;;;4826898;29;20056;-81
2022/03/13 05:50:44;;;;;;;26.73;16.83;;;;;;;;;;4835610;29;20041;-80
2022/03/13 05:53:10;;;;;;;21.90;16.08;;;;;;;;;;4842206;29;20128;-81
2022/03/13 05:55:36;;;;;;;23.17;17.17;;;;;;;;;;4839999;29;20457;-80
2022/03/13 05:58:03;;;;;;;24.15;16.75;;;;;;;;;;4837953;29;20132;-81
2022/03/13 06:00:32;;;;;;;25.58;16.40;;;;;;;;;;4856439;29;20454;-82
2022/03/13 06:02:59;;;;;;;19.45;15.65;;;;;;;;;;4836855;29;20493;-80
2022/03/13 06:05:25;;;;;;;24.02;15.80;;;;;;;;;;4840896;29;20056;-81
2022/03/13 06:07:51;;;;;;;21.35;16.55;;;;;;;;;;4856539;29;20056;-81
2022/03/13 06:10:18;;;;;;;25.02;16.50;;;;;;;;;;4839911;29;20048;-81
2022/03/13 06:12:45;;;;;;;22.00;16.73;;;;;;;;;;4853583;29;20136;-81
2022/03/13 06:15:12;;;;;;;21.10;15.65;;;;;;;;;;4854269;29;20396;-81
2022/03/13 06:17:39;;;;;;;22.02;15.98;;;;;;;;;;4841098;29;20052;-80
2022/03/13 06:20:07;;;;;;;23.67;16.40;;;;;;;;;;4837634;29;20060;-80
2022/03/13 06:22:34;;;;;;;23.10;15.82;;;;;;;;;;4838555;29;20053;-81
2022/03/13 06:25:00;;;;;;;21.90;15.93;;;;;;;;;;4853183;29;20053;-82
2022/03/13 06:27:26;;;;;;;23.10;15.98;;;;;;;;;;4842120;29;20052;-81
2022/03/13 06:29:52;;;;;;;22.98;15.50;;;;;;;;;;4855397;29;20061;-81
2022/03/13 06:32:19;;;;;;;19.27;14.80;;;;;;;;;;4839142;29;20051;-81
2022/03/13 06:34:45;;;;;;;20.27;14.90;;;;;;;;;;4836931;29;20098;-81
2022/03/13 06:37:11;;;;;;;21.05;15.02;;;;;;;;;;4856511;29;20060;-82
2022/03/13 06:39:37;;;;;;;21.67;16.23;;;;;;;;;;4855780;29;20041;-81
2022/03/13 06:42:03;;;;;;;22.15;15.27;;;;;;;;;;4838014;29;20057;-81
2022/03/13 06:44:30;;;;;;;21.00;15.50;;;;;;;;;;4840485;29;20053;-82
2022/03/13 06:46:56;;;;;;;20.17;14.70;;;;;;;;;;4839842;29;20059;-82
2022/03/13 06:49:22;;;;;;;20.60;14.88;;;;;;;;;;4826926;29;20494;-81
2022/03/13 06:51:48;;;;;;;21.65;14.93;;;;;;;;;;4852519;29;20100;-81
2022/03/13 06:54:14;;;;;;;17.15;14.05;;;;;;;;;;4841103;29;20057;-81
2022/03/13 06:56:41;;;;;;;21.60;14.63;;;;;;;;;;4841451;29;20127;-82
2022/03/13 06:59:07;;;;;;;20.90;14.32;;;;;;;;;;4835390;29;20053;-86
2022/03/13 07:01:34;;;;;;;18.65;14.18;;;;;;;;;;4852824;29;20050;-84
2022/03/13 07:04:00;;;;;;;18.17;14.27;;;;;;;;;;4836642;29;20088;-81
2022/03/13 07:06:26;;;;;;;19.75;13.68;;;;;;;;;;4836768;29;20099;-81
2022/03/13 07:08:52;;;;;;;21.90;14.63;;;;;;;;;;4843553;29;20044;-81
2022/03/13 07:11:19;;;;;;;20.40;13.77;;;;;;;;;;4839303;29;20139;-82
2022/03/13 07:13:45;;;;;;;19.60;14.45;;;;;;;;;;4837938;29;20136;-81
2022/03/13 07:16:14;;;;;;;20.25;13.77;;;;;;;;;;4831186;29;20045;-81
2022/03/13 07:18:40;;;;;;;17.23;13.18;;;;;;;;;;4859376;29;20106;-81
2022/03/13 07:21:07;;;;;;;22.10;14.35;;;;;;;;;;4859343;29;20061;-81
2022/03/13 07:23:33;;;;;;;19.10;13.50;;;;;;;;;;4853832;29;20088;-82
2022/03/13 07:25:59;;;;;;;17.50;12.73;;;;;;;;;;4839261;29;20113;-81
2022/03/13 07:28:26;;;;;;;22.25;13.93;;;;;;;;;;4833298;29;20160;-81
2022/03/13 07:30:53;;;;;;;20.52;13.98;;;;;;;;;;4843859;29;20438;-81
2022/03/13 07:33:19;;;;;;;21.02;13.48;;;;;;;;;;4845977;29;20063;-81
2022/03/13 07:35:45;;;;;;;18.65;12.77;;;;;;;;;;4848037;29;20123;-82
2022/03/13 07:38:11;;;;;;;17.52;13.20;;;;;;;;;;4859981;29;20409;-82
2022/03/13 07:40:37;;;;;;;18.60;13.80;;;;;;;;;;4840647;29;20052;-82
2022/03/13 07:43:04;;;;;;;18.95;13.52;;;;;;;;;;4836716;29;20046;-82
2022/03/13 07:45:30;;;;;;;17.48;12.65;;;;;;;;;;4860403;29;20052;-84
2022/03/13 07:47:59;;;;;;;16.45;12.07;;;;;;;;;;4846665;29;20512;-81
2022/03/13 07:50:26;;;;;;;16.48;11.98;;;;;;;;;;4842941;29;20076;-82
2022/03/13 07:52:52;;;;;;;17.58;13.23;;;;;;;;;;4856557;29;20052;-81
2022/03/13 07:55:18;;;;;;;17.45;13.27;;;;;;;;;;4847018;29;20069;-82
2022/03/13 07:57:44;;;;;;;17.38;12.75;;;;;;;;;;4845959;29;20049;-82
2022/03/13 08:00:10;;;;;;;20.45;13.48;;;;;;;;;;4848056;29;20056;-82
2022/03/13 08:02:37;;;;;;;17.88;12.82;;;;;;;;;;4838617;29;20065;-82
2022/03/13 08:05:03;;;;;;;18.65;13.00;;;;;;;;;;4838369;29;20052;-82
2022/03/13 08:07:29;;;;;;;17.90;12.35;;;;;;;;;;4857046;29;20056;-81
2022/03/13 08:09:58;;;;;;;17.40;12.77;;;;;;;;;;4848230;29;20064;-81
2022/03/13 08:12:24;;;;;;;17.48;12.40;;;;;;;;;;4839328;29;20815;-81
2022/03/13 08:14:52;;;;;;;19.52;12.45;;;;;;;;;;4856906;29;20089;-81
2022/03/13 08:17:18;;;;;;;16.58;12.38;;;;;;;;;;4858009;29;20132;-81
2022/03/13 08:19:44;;;;;;;19.67;12.82;;;;;;;;;;4854728;29;20057;-81
2022/03/13 08:22:10;;;;;;;15.48;12.10;;;;;;;;;;4816907;29;20044;-81
2022/03/13 08:24:36;;;;;;;15.98;12.18;;;;;;;;;;4838155;29;20128;-83
2022/03/13 08:27:03;;;;;;;17.20;12.90;;;;;;;;;;4856754;29;20049;-81
2022/03/13 08:29:29;;;;;;;16.50;11.57;;;;;;;;;;4858710;29;20488;-81
2022/03/13 08:31:55;;;;;;;21.02;11.63;;;;;;;;;;4859128;29;20455;-80
2022/03/13 08:34:21;;;;;;;19.45;11.88;;;;;;;;;;4858099;29;20109;-82
2022/03/13 08:36:48;;;;;;;17.85;11.88;;;;;;;;;;4844112;29;20136;-81
2022/03/13 08:39:14;;;;;;;16.42;11.43;;;;;;;;;;4828865;29;20056;-81
2022/03/13 08:41:41;;;;;;;18.83;12.18;;;;;;;;;;4853170;29;20049;-81
2022/03/13 08:44:08;;;;;;;19.60;11.98;;;;;;;;;;4833484;29;20092;-79
2022/03/13 08:46:34;;;;;;;16.23;12.55;;;;;;;;;;4851700;29;20059;-82
2022/03/13 08:49:00;;;;;;;15.80;12.07;;;;;;;;;;4826505;29;20057;-81
2022/03/13 08:51:27;;;;;;;16.98;13.52;;;;;;;;;;4853259;29;20071;-81
2022/03/13 08:53:54;;;;;;;17.20;12.20;;;;;;;;;;4852387;29;20135;-81
2022/03/13 08:56:20;;;;;;;16.70;13.15;;;;;;;;;;4840276;29;20045;-82
2022/03/13 08:58:47;;;;;;;17.52;11.65;;;;;;;;;;4850019;29;20127;-82
2022/03/13 09:01:14;;;;;;;17.77;12.27;;;;;;;;;;4847768;29;20506;-83
2022/03/13 09:03:41;;;;;;;14.82;11.73;;;;;;;;;;4854188;29;20041;-82
2022/03/13 09:06:07;;;;;;;15.93;12.05;;;;;;;;;;4852064;29;20054;-83
2022/03/13 09:08:33;;;;;;;;;;;;;;;;;;4856239;29;20113;-81
2022/03/13 09:10:59;;;;;;;;;;;;;;;;;;4857315;29;19928;-81
2022/03/13 09:13:25;;;;;;;;;;;;;;;;;;4854936;29;19968;-81
2022/03/13 09:15:51;;;;;;;;;;;;;;;;;;4857990;29;19924;-81
2022/03/13 09:18:17;;;;;;;;;;;;;;;;;;4844597;29;20379;-86
2022/03/13 09:20:43;;;;;;;;;;;;;;;;;;4837423;29;19951;-83
2022/03/13 09:23:09;;;;;;;;;;;;;;;;;;4851992;29;20416;-84
2022/03/13 09:25:35;;;;;;;;;;;;;;;;;;4857012;29;20372;-88
2022/03/13 09:28:01;;;;;;;;;;;;;;;;;;4837555;29;19924;-86
2022/03/13 09:30:27;;;;;;;;;;;;;;;;;;4856695;29;21429;-87
2022/03/13 09:32:53;;;;;;;;;;;;;;;;;;4847076;29;20027;-87
2022/03/13 09:35:19;;;;;;;14.57;11.10;;;;;;;;;;4854276;29;19957;-85
2022/03/13 09:37:46;;;;;;;15.38;12.50;;;;;;;;;;4853794;29;20045;-89
2022/03/13 09:40:13;;;;;;;14.95;10.88;;;;;;;;;;4826917;29;20486;-82
2022/03/13 09:42:39;;;;;;;16.45;12.35;;;;;;;;;;4857283;29;20037;-86
2022/03/13 09:45:05;;;;;;;13.70;11.20;;;;;;;;;;4833746;29;20125;-88
2022/03/13 09:47:32;;;;;;;17.15;11.57;;;;;;;;;;4842145;29;20515;-85
2022/03/13 09:49:58;;;;;;;14.85;11.77;;;;;;;;;;4850182;29;20045;-85
2022/03/13 09:52:24;;;;;;;13.85;11.30;;;;;;;;;;4855035;29;20108;-85
2022/03/13 09:54:50;;;;;;;15.57;11.95;;;;;;;;;;4855001;29;20458;-84
2022/03/13 09:57:17;;;;;;;15.95;11.23;;;;;;;;;;4840049;29;20085;-85
2022/03/13 09:59:46;;;;;;;16.25;11.10;;;;;;;;;;4843803;29;20052;-83
2022/03/13 10:02:12;;;;;;;16.70;10.77;;;;;;;;;;4841214;29;20055;-83
2022/03/13 10:04:38;;;;;;;14.82;11.63;;;;;;;;;;4851852;29;20152;-82
2022/03/13 10:07:06;;;;;;;14.18;11.38;;;;;;;;;;4859682;29;20120;-81
2022/03/13 10:09:33;;;;;;;14.82;10.75;;;;;;;;;;4858146;29;20125;-82
2022/03/13 10:12:07;;;;;;;14.55;11.77;;;;;;;;;;4851231;29;20092;-82
2022/03/13 10:14:34;;;;;;;15.60;11.85;;;;;;;;;;4841728;29;20112;-80
2022/03/13 10:17:00;;;;;;;14.15;10.88;;;;;;;;;;4828107;29;20048;-82
2022/03/13 10:19:28;;;;;;;16.10;11.73;;;;;;;;;;4854376;29;20061;-81
2022/03/13 10:22:01;;;;;;;16.58;10.93;;;;;;;;;;4842810;29;20486;-81
2022/03/13 10:24:28;;;;;;;17.65;12.10;;;;;;;;;;4843136;29;20053;-82
2022/03/13 10:27:10;;;;;;;15.38;11.13;;;;;;;;;;4852173;29;20401;-82
2022/03/13 10:29:36;;;;;;;14.48;11.68;;;;;;;;;;4841674;29;20056;-83
2022/03/13 10:32:03;;;;;;;19.48;12.07;;;;;;;;;;4850434;29;22203;-81
2022/03/13 10:34:29;;;;;;;17.95;12.07;;;;;;;;;;4837674;29;20455;-82
2022/03/13 10:37:03;;;;;;;18.33;11.73;;;;;;;;;;4837399;29;20491;-87
2022/03/13 10:39:30;;;;;;;19.88;11.85;;;;;;;;;;4841984;29;20398;-85
2022/03/13 10:42:02;;;;;;;15.35;11.27;;;;;;;;;;4841504;29;20061;-81
2022/03/13 10:44:35;;;;;;;16.45;11.65;;;;;;;;;;4837949;29;20561;-86
2022/03/13 10:47:08;;;;;;;15.65;11.63;;;;;;;;;;4839550;29;20092;-86
2022/03/13 10:49:44;;;;;;;15.63;11.10;;;;;;;;;;4839213;29;20071;-85
2022/03/13 10:52:22;;;;;;;16.55;12.50;;;;;;;;;;4855367;29;20466;-87
2022/03/13 10:54:49;;;;;;;15.60;11.57;;;;;;;;;;4855291;29;20049;-83
2022/03/13 10:57:15;;;;;;;15.25;12.05;;;;;;;;;;4841751;29;20489;-87
2022/03/13 10:59:43;;;;;;;18.98;11.90;;;;;;;;;;4841051;29;20387;-89
2022/03/13 11:02:13;;;;;;;15.43;11.73;;;;;;;;;;4838247;29;20108;-81
2022/03/13 11:04:51;;;;;;;24.25;12.50;;;;;;;;;;4865444;29;20045;-81
2022/03/13 11:07:18;;;;;;;15.27;11.50;;;;;;;;;;4841248;29;20626;-85
2022/03/13 11:09:44;;;;;;;15.27;11.77;;;;;;;;;;4833500;29;20055;-86
2022/03/13 11:12:17;;;;;;;17.63;12.32;;;;;;;;;;4840273;29;20060;-85
2022/03/13 11:14:49;;;;;;;15.05;11.98;;;;;;;;;;4852130;29;20049;-83
2022/03/13 11:17:16;;;;;;;14.43;11.05;;;;;;;;;;4853552;29;20129;-86
2022/03/13 11:19:43;;;;;;;16.05;11.98;;;;;;;;;;4855404;29;20060;-84
2022/03/13 11:22:09;;;;;;;19.02;13.00;;;;;;;;;;4855955;29;20085;-83
2022/03/13 11:24:36;;;;;;;17.80;12.27;;;;;;;;;;4855754;29;20167;-84
2022/03/13 11:27:02;;;;;;;17.25;12.05;;;;;;;;;;4857012;29;20465;-84
2022/03/13 11:29:42;;;;;;;16.55;11.80;;;;;;;;;;4851425;29;20085;-80
2022/03/13 11:32:27;;;;;;;14.82;10.68;;;;;;;;;;4842482;29;20056;-83
2022/03/13 11:35:19;;;;;;;15.77;12.20;;;;;;;;;;4842230;29;20045;-85
2022/03/13 11:37:46;;;;;;;16.63;11.98;;;;;;;;;;4856839;29;20056;-83
2022/03/13 11:40:14;;;;;;;15.00;11.05;;;;;;;;;;4834927;29;20053;-84
2022/03/13 11:43:04;;;;;;;15.70;11.50;;;;;;;;;;4836875;29;20450;-85
2022/03/13 11:45:32;;;;;;;16.92;11.82;;;;;;;;;;4840208;29;20061;-83
2022/03/13 11:48:22;;;;;;;14.43;11.40;;;;;;;;;;4841945;29;20136;-91
2022/03/13 11:50:52;;;;;;;14.38;11.02;;;;;;;;;;4842641;29;20053;-84
2022/03/13 11:53:22;;;;;;;16.40;10.77;;;;;;;;;;4842923;29;20057;-84
2022/03/13 11:56:00;;;;;;;14.02;10.75;;;;;;;;;;4844186;29;20084;-88
2022/03/13 11:58:42;;;;;;;14.52;10.65;;;;;;;;;;4845061;29;20182;-84
2022/03/13 12:01:15;;;;;;;14.75;10.90;;;;;;;;;;4861520;29;20060;-85
2022/03/13 12:04:04;;;;;;;17.40;11.37;;;;;;;;;;4845688;29;20049;-83
2022/03/13 12:06:57;;;;;;;13.95;11.10;;;;;;;;;;4849367;29;20677;-86
2022/03/13 12:09:26;;;;;;;14.77;10.55;;;;;;;;;;4857689;29;20077;-85
2022/03/13 12:12:03;;;;;;;12.82;10.40;;;;;;;;;;4846371;29;20072;-87
2022/03/13 12:14:48;;;;;;;13.43;10.73;;;;;;;;;;4845205;29;20052;-89
2022/03/13 12:17:15;;;;;;;18.02;11.70;;;;;;;;;;4838797;29;20444;-85
2022/03/13 12:19:42;;;;;;;14.43;10.73;;;;;;;;;;4837357;29;20084;-83
2022/03/13 12:22:08;;;;;;;14.90;10.98;;;;;;;;;;4836283;29;20514;-86
2022/03/13 12:24:34;;;;;;;13.65;10.65;;;;;;;;;;4845294;29;20041;-81
2022/03/13 12:27:07;;;;;;;14.95;10.35;;;;;;;;;;4861077;29;20049;-82
2022/03/13 12:29:33;;;;;;;14.35;11.15;;;;;;;;;;4859609;29;20105;-83
2022/03/13 12:32:00;;;;;;;16.33;12.18;;;;;;;;;;4860016;29;20053;-81
2022/03/13 12:34:31;;;;;;;21.30;12.43;;;;;;;;;;4844677;29;20056;-83
2022/03/13 12:37:02;;;;;;;14.20;11.05;;;;;;;;;;4844365;29;20105;-84
2022/03/13 12:39:28;;;;;;;16.27;11.48;;;;;;;;;;4860428;29;20057;-84
2022/03/13 12:41:55;;;;;;;20.90;12.00;;;;;;;;;;4836340;29;20064;-83
2022/03/13 12:44:22;;;;;;;17.10;11.73;;;;;;;;;;4847086;29;20060;-82
2022/03/13 12:46:54;;;;;;;15.75;12.13;;;;;;;;;;4842971;29;20041;-83
2022/03/13 12:49:36;;;;;;;15.27;11.77;;;;;;;;;;4860665;29;20060;-82
2022/03/13 12:52:02;;;;;;;16.98;11.77;;;;;;;;;;4839389;29;20144;-85
2022/03/13 12:54:33;;;;;;;19.58;12.10;;;;;;;;;;4830612;29;20049;-83
2022/03/13 12:57:08;;;;;;;17.88;12.50;;;;;;;;;;4853821;29;20060;-82
2022/03/13 12:59:36;;;;;;;16.50;11.93;;;;;;;;;;4847564;29;20104;-82
2022/03/13 13:02:10;;;;;;;15.80;12.43;;;;;;;;;;4847167;29;20064;-83
2022/03/13 13:04:37;;;;;;;15.35;12.43;;;;;;;;;;4858262;29;20056;-82
2022/03/13 13:07:04;;;;;;;16.95;12.57;;;;;;;;;;4854536;29;20079;-83
2022/03/13 13:09:35;;;;;;;16.15;11.98;;;;;;;;;;4847319;29;20053;-83
2022/03/13 13:12:01;;;;;;;14.38;12.20;;;;;;;;;;4843163;29;20502;-79
2022/03/13 13:14:28;;;;;;;16.88;12.43;;;;;;;;;;4858566;29;20053;-83
2022/03/13 13:16:56;;;;;;;15.48;12.38;;;;;;;;;;4830675;29;20129;-83
2022/03/13 13:19:22;;;;;;;19.85;12.27;;;;;;;;;;4856388;29;20049;-84
2022/03/13 13:21:56;;;;;;;17.58;12.25;;;;;;;;;;4854830;29;20052;-85
2022/03/13 13:24:25;;;;;;;18.00;11.95;;;;;;;;;;4841484;29;20077;-85
2022/03/13 13:26:51;;;;;;;17.38;12.70;;;;;;;;;;4842628;29;20041;-85
2022/03/13 13:29:37;;;;;;;15.82;12.10;;;;;;;;;;4843183;29;20084;-85
2022/03/13 13:32:22;;;;;;;16.70;12.68;;;;;;;;;;4843387;29;20580;-84
2022/03/13 13:35:05;;;;;;;20.05;13.13;;;;;;;;;;4852070;29;20041;-87
2022/03/13 13:37:32;;;;;;;16.48;12.73;;;;;;;;;;4833022;29;20074;-86
2022/03/13 13:40:11;;;;;;;17.23;12.48;;;;;;;;;;4844659;29;20068;-82
2022/03/13 13:42:39;;;;;;;14.82;11.80;;;;;;;;;;4829046;29;20053;-83
2022/03/13 13:45:26;;;;;;;15.90;11.68;;;;;;;;;;4856189;29;20485;-85
2022/03/13 13:47:52;;;;;;;16.88;13.07;;;;;;;;;;4847210;29;20085;-85
2022/03/13 13:50:22;;;;;;;16.23;12.45;;;;;;;;;;4861426;29;20056;-84
2022/03/13 13:53:02;;;;;;;15.85;12.18;;;;;;;;;;4860503;29;20070;-85
2022/03/13 13:55:28;;;;;;;16.98;12.68;;;;;;;;;;4837561;29;20529;-86
2022/03/13 13:58:14;;;;;;;18.55;12.45;;;;;;;;;;4846549;29;20084;-86
2022/03/13 14:00:40;;;;;;;16.17;12.50;;;;;;;;;;4820824;29;20065;-85
2022/03/13 14:03:06;;;;;;;18.33;12.77;;;;;;;;;;4860508;29;20129;-85
2022/03/13 14:05:33;;;;;;;15.98;11.68;;;;;;;;;;4838443;29;20050;-85
2022/03/13 14:07:59;;;;;;;15.77;11.68;;;;;;;;;;4846166;29;20156;-85
2022/03/13 14:10:26;;;;;;;14.43;11.00;;;;;;;;;;4829262;29;20049;-85
2022/03/13 14:12:52;;;;;;;17.38;11.38;;;;;;;;;;4841876;29;20049;-86
2022/03/13 14:15:20;;;;;;;12.73;10.23;;;;;;;;;;4843996;29;20049;-84
2022/03/13 14:17:46;;;;;;;13.23;10.82;;;;;;;;;;4861004;29;20132;-85
2022/03/13 14:20:13;;;;;;;14.07;10.70;;;;;;;;;;4843135;29;20053;-86
2022/03/13 14:22:41;;;;;;;13.93;11.43;;;;;;;;;;4852956;29;20056;-84
2022/03/13 14:25:07;;;;;;;14.55;10.93;;;;;;;;;;4859524;29;20186;-84